Time;durP1;ratioP1;P1;durP2;ratioP2;P2;SDS_P1;SDS_P2;PMS_P1;PMS_P2;Temp;Humidity;BMP_temperature;BMP_pressure;BME280_temperature;BME280_humidity;BME280_pressure;Samples;Min_cycle;Max_cycle;Signal;HPM_P1;HPM_P2
2023/03/14 00:01:51;;;;;;;19.98;5.78;;;;;;;;;;5144418;27;20046;-78
2023/03/14 00:04:17;;;;;;;20.33;4.72;;;;;;;;;;5127118;27;20130;-78
2023/03/14 00:06:43;;;;;;;18.45;4.72;;;;;;;;;;5133164;27;20118;-78
2023/03/14 00:09:09;;;;;;;20.90;5.03;;;;;;;;;;5131441;27;20506;-78
2023/03/14 00:11:35;;;;;;;17.17;4.63;;;;;;;;;;5124568;27;20117;-79
2023/03/14 00:14:02;;;;;;;19.52;4.88;;;;;;;;;;5148567;27;20030;-78
2023/03/14 00:16:28;;;;;;;18.10;4.70;;;;;;;;;;5124491;27;20050;-78
2023/03/14 00:18:54;;;;;;;16.70;3.92;;;;;;;;;;5132145;27;20041;-78
2023/03/14 00:21:20;;;;;;;15.70;4.05;;;;;;;;;;5127424;27;20043;-78
2023/03/14 00:23:46;;;;;;;19.25;4.35;;;;;;;;;;5126328;27;20133;-78
2023/03/14 00:26:14;;;;;;;20.10;4.90;;;;;;;;;;5143147;27;20059;-78
2023/03/14 00:28:41;;;;;;;19.77;4.25;;;;;;;;;;5126203;27;20031;-78
2023/03/14 00:31:08;;;;;;;25.52;4.60;;;;;;;;;;5148681;27;20136;-78
2023/03/14 00:33:35;;;;;;;12.60;3.70;;;;;;;;;;5129408;27;20039;-78
2023/03/14 00:36:02;;;;;;;17.05;4.03;;;;;;;;;;5124012;27;20046;-77
2023/03/14 00:38:28;;;;;;;13.45;4.03;;;;;;;;;;5127368;27;20367;-77
2023/03/14 00:40:54;;;;;;;18.60;5.35;;;;;;;;;;5126444;27;20479;-78
2023/03/14 00:43:24;;;;;;;23.13;5.95;;;;;;;;;;5146667;27;20039;-78
2023/03/14 00:45:50;;;;;;;20.42;5.22;;;;;;;;;;5127986;27;20042;-78
2023/03/14 00:48:17;;;;;;;26.55;6.32;;;;;;;;;;5149304;27;20134;-78
2023/03/14 00:50:43;;;;;;;23.35;5.25;;;;;;;;;;5143193;27;20224;-78
2023/03/14 00:53:09;;;;;;;20.63;4.47;;;;;;;;;;5117242;27;20438;-79
2023/03/14 00:55:39;;;;;;;19.63;4.57;;;;;;;;;;5139127;27;20084;-78
2023/03/14 00:58:05;;;;;;;19.27;4.15;;;;;;;;;;5140622;27;20131;-78
2023/03/14 01:00:31;;;;;;;16.15;4.30;;;;;;;;;;5140974;27;20094;-78
2023/03/14 01:02:57;;;;;;;15.60;4.82;;;;;;;;;;5118040;27;20057;-78
2023/03/14 01:05:23;;;;;;;20.98;5.07;;;;;;;;;;5120909;27;20094;-78
2023/03/14 01:07:49;;;;;;;16.67;4.75;;;;;;;;;;5120176;27;20058;-78
2023/03/14 01:10:16;;;;;;;18.55;4.50;;;;;;;;;;5138291;27;20048;-78
2023/03/14 01:12:42;;;;;;;21.52;4.53;;;;;;;;;;5137144;27;20035;-81
2023/03/14 01:15:08;;;;;;;21.65;5.32;;;;;;;;;;5135198;27;20043;-79
2023/03/14 01:17:34;;;;;;;26.00;5.53;;;;;;;;;;5117502;27;20038;-78
2023/03/14 01:20:01;;;;;;;26.27;5.80;;;;;;;;;;5118198;27;20096;-78
2023/03/14 01:22:27;;;;;;;25.55;5.30;;;;;;;;;;5120005;27;20116;-78
2023/03/14 01:24:53;;;;;;;27.92;6.03;;;;;;;;;;5120327;27;20039;-79
2023/03/14 01:27:19;;;;;;;24.13;5.05;;;;;;;;;;5119855;27;20505;-78
2023/03/14 01:29:47;;;;;;;23.30;5.70;;;;;;;;;;5145715;27;20047;-78
2023/03/14 01:32:13;;;;;;;21.27;5.53;;;;;;;;;;5125194;27;20051;-78
2023/03/14 01:34:39;;;;;;;23.58;5.25;;;;;;;;;;5128336;27;20062;-78
2023/03/14 01:37:07;;;;;;;25.85;5.38;;;;;;;;;;5146629;27;20042;-78
2023/03/14 01:39:33;;;;;;;19.73;4.78;;;;;;;;;;5146045;27;20083;-78
2023/03/14 01:42:00;;;;;;;25.38;5.55;;;;;;;;;;5126322;27;20078;-78
2023/03/14 01:44:26;;;;;;;23.92;5.38;;;;;;;;;;5128223;27;20050;-78
2023/03/14 01:46:52;;;;;;;18.13;5.45;;;;;;;;;;5122560;27;20045;-78
2023/03/14 01:49:25;;;;;;;25.58;5.50;;;;;;;;;;5146120;27;20091;-78
2023/03/14 01:51:51;;;;;;;28.75;6.05;;;;;;;;;;5123246;27;20462;-78
2023/03/14 01:54:24;;;;;;;27.17;5.38;;;;;;;;;;5126560;27;20049;-78
2023/03/14 01:56:56;;;;;;;21.45;5.97;;;;;;;;;;5128035;27;20099;-78
2023/03/14 01:59:22;;;;;;;19.67;5.22;;;;;;;;;;5125770;27;20115;-78
2023/03/14 02:01:50;;;;;;;27.10;5.10;;;;;;;;;;5149009;27;20405;-78
2023/03/14 02:04:17;;;;;;;25.00;6.05;;;;;;;;;;5152265;27;20693;-78
2023/03/14 02:06:47;;;;;;;24.00;5.20;;;;;;;;;;5153115;27;20097;-78
2023/03/14 02:09:13;;;;;;;21.05;4.18;;;;;;;;;;5129440;27;20043;-78
2023/03/14 02:11:39;;;;;;;24.70;4.50;;;;;;;;;;5135159;27;20047;-78
2023/03/14 02:14:06;;;;;;;16.98;4.80;;;;;;;;;;5133490;27;20598;-78
2023/03/14 02:16:32;;;;;;;20.08;4.85;;;;;;;;;;5151217;27;20042;-78
2023/03/14 02:18:58;;;;;;;27.13;5.00;;;;;;;;;;5132503;27;20374;-78
2023/03/14 02:21:34;;;;;;;25.00;5.68;;;;;;;;;;5147126;27;20054;-78
2023/03/14 02:24:00;;;;;;;22.02;4.93;;;;;;;;;;5154097;27;20046;-78
2023/03/14 02:26:37;;;;;;;18.88;4.65;;;;;;;;;;5154701;27;20056;-78
2023/03/14 02:29:03;;;;;;;21.77;5.05;;;;;;;;;;5144810;27;20464;-78
2023/03/14 02:31:29;;;;;;;31.95;5.78;;;;;;;;;;5149415;27;20043;-78
2023/03/14 02:33:55;;;;;;;15.02;4.00;;;;;;;;;;5128478;27;20375;-77
2023/03/14 02:36:21;;;;;;;26.38;4.97;;;;;;;;;;5131326;27;20047;-77
2023/03/14 02:38:53;;;;;;;23.48;5.97;;;;;;;;;;5127869;27;20481;-78
2023/03/14 02:41:19;;;;;;;24.48;4.88;;;;;;;;;;5129703;27;20053;-78
2023/03/14 02:43:45;;;;;;;19.83;5.35;;;;;;;;;;5150704;27;20046;-78
2023/03/14 02:46:13;;;;;;;27.25;5.63;;;;;;;;;;5122398;27;20149;-78
2023/03/14 02:48:59;;;;;;;21.50;5.35;;;;;;;;;;5128914;27;20031;-78
2023/03/14 02:51:26;;;;;;;25.17;5.68;;;;;;;;;;5111377;27;21815;-78
2023/03/14 02:53:52;;;;;;;23.25;4.30;;;;;;;;;;5147699;27;20087;-79
2023/03/14 02:56:18;;;;;;;23.77;5.63;;;;;;;;;;5145102;27;20037;-78
2023/03/14 02:58:44;;;;;;;25.67;5.55;;;;;;;;;;5130293;27;20046;-78
2023/03/14 03:01:10;;;;;;;28.35;5.57;;;;;;;;;;5145765;27;20474;-78
2023/03/14 03:03:36;;;;;;;24.35;5.88;;;;;;;;;;5148162;27;20103;-78
2023/03/14 03:06:03;;;;;;;25.38;4.95;;;;;;;;;;5128068;27;20039;-78
2023/03/14 03:08:29;;;;;;;28.48;4.75;;;;;;;;;;5132563;27;20114;-78
2023/03/14 03:10:56;;;;;;;23.13;4.95;;;;;;;;;;5150047;27;20039;-78
2023/03/14 03:13:22;;;;;;;24.13;5.35;;;;;;;;;;5149677;27;20030;-78
2023/03/14 03:15:48;;;;;;;28.92;5.43;;;;;;;;;;5149380;27;20600;-78
2023/03/14 03:18:14;;;;;;;31.15;5.90;;;;;;;;;;5124437;27;20062;-78
2023/03/14 03:20:40;;;;;;;29.65;5.75;;;;;;;;;;5130960;27;20047;-78
2023/03/14 03:23:06;;;;;;;29.67;6.50;;;;;;;;;;5131026;27;20502;-78
2023/03/14 03:25:33;;;;;;;28.88;7.10;;;;;;;;;;5124389;27;20039;-78
2023/03/14 03:27:59;;;;;;;28.40;5.85;;;;;;;;;;5125379;27;20035;-78
2023/03/14 03:30:26;;;;;;;31.52;6.30;;;;;;;;;;5129844;27;20062;-78
2023/03/14 03:32:52;;;;;;;32.90;6.65;;;;;;;;;;5124279;27;20044;-78
2023/03/14 03:35:18;;;;;;;25.10;6.50;;;;;;;;;;5123068;27;20047;-78
2023/03/14 03:37:44;;;;;;;33.90;6.57;;;;;;;;;;5125638;27;20118;-78
2023/03/14 03:40:10;;;;;;;21.70;5.40;;;;;;;;;;5126223;27;20055;-78
2023/03/14 03:42:36;;;;;;;25.92;6.07;;;;;;;;;;5130466;27;20578;-78
2023/03/14 03:45:03;;;;;;;32.15;5.63;;;;;;;;;;5121239;27;20070;-78
2023/03/14 03:47:30;;;;;;;30.42;6.32;;;;;;;;;;5126539;27;20099;-78
2023/03/14 03:49:56;;;;;;;33.53;6.70;;;;;;;;;;5131235;27;20054;-77
2023/03/14 03:52:22;;;;;;;30.73;6.55;;;;;;;;;;5116971;27;20138;-77
2023/03/14 03:54:48;;;;;;;24.42;6.28;;;;;;;;;;5125183;27;20039;-78
2023/03/14 03:57:14;;;;;;;25.45;6.18;;;;;;;;;;5123377;27;20100;-78
2023/03/14 03:59:40;;;;;;;28.77;5.60;;;;;;;;;;5130579;27;20038;-79
2023/03/14 04:02:07;;;;;;;32.83;6.85;;;;;;;;;;5123388;27;20074;-78
2023/03/14 04:04:33;;;;;;;37.80;6.15;;;;;;;;;;5130799;27;20051;-78
2023/03/14 04:06:59;;;;;;;36.22;6.50;;;;;;;;;;5129832;27;20118;-78
2023/03/14 04:09:25;;;;;;;37.13;6.60;;;;;;;;;;5120726;27;20163;-78
2023/03/14 04:11:51;;;;;;;27.13;5.60;;;;;;;;;;5123585;27;20049;-78
2023/03/14 04:14:17;;;;;;;32.42;6.50;;;;;;;;;;5128829;27;20039;-78
2023/03/14 04:16:43;;;;;;;26.27;5.90;;;;;;;;;;5125944;27;20043;-78
2023/03/14 04:19:09;;;;;;;26.90;5.40;;;;;;;;;;5127726;27;20053;-78
2023/03/14 04:21:35;;;;;;;28.55;5.97;;;;;;;;;;5146385;27;20459;-78
2023/03/14 04:24:01;;;;;;;20.90;5.53;;;;;;;;;;5151433;27;20035;-79
2023/03/14 04:26:27;;;;;;;33.72;7.28;;;;;;;;;;5149600;27;20066;-78
2023/03/14 04:28:53;;;;;;;33.25;6.65;;;;;;;;;;5152196;27;20091;-78
2023/03/14 04:31:21;;;;;;;24.00;5.25;;;;;;;;;;5147394;27;20063;-77
2023/03/14 04:33:47;;;;;;;22.10;4.65;;;;;;;;;;5128657;27;20098;-78
2023/03/14 04:36:14;;;;;;;21.90;5.50;;;;;;;;;;5140158;27;20031;-77
2023/03/14 04:38:40;;;;;;;18.20;3.90;;;;;;;;;;5128360;27;20042;-78
2023/03/14 04:41:06;;;;;;;14.65;4.35;;;;;;;;;;5131628;27;20192;-78
2023/03/14 04:43:32;;;;;;;23.25;4.50;;;;;;;;;;5120531;27;20034;-78
2023/03/14 04:45:59;;;;;;;23.45;4.75;;;;;;;;;;5146309;27;20050;-77
2023/03/14 04:48:25;;;;;;;18.05;4.00;;;;;;;;;;5131632;27;20039;-77
2023/03/14 04:50:51;;;;;;;17.08;3.75;;;;;;;;;;5129686;27;20474;-78
2023/03/14 04:53:18;;;;;;;15.52;3.30;;;;;;;;;;5129808;27;20039;-77
2023/03/14 04:55:54;;;;;;;15.93;4.25;;;;;;;;;;5129396;27;20438;-77
2023/03/14 04:58:21;;;;;;;20.80;4.78;;;;;;;;;;5151324;27;20492;-77
2023/03/14 05:00:47;;;;;;;22.88;4.95;;;;;;;;;;5138394;27;20065;-78
2023/03/14 05:03:17;;;;;;;21.27;4.93;;;;;;;;;;5144041;27;20039;-78
2023/03/14 05:05:43;;;;;;;24.10;4.57;;;;;;;;;;5144641;27;20039;-78
2023/03/14 05:08:09;;;;;;;30.15;5.47;;;;;;;;;;5125404;27;20035;-77
2023/03/14 05:10:35;;;;;;;26.33;5.03;;;;;;;;;;5148282;27;20042;-77
2023/03/14 05:13:01;;;;;;;32.45;6.22;;;;;;;;;;5151698;27;20154;-77
2023/03/14 05:15:27;;;;;;;29.35;6.03;;;;;;;;;;5131863;27;20129;-78
2023/03/14 05:17:54;;;;;;;31.52;6.25;;;;;;;;;;5121824;27;20047;-77
2023/03/14 05:20:20;;;;;;;19.35;3.42;;;;;;;;;;5125398;27;20456;-77
2023/03/14 05:22:46;;;;;;;16.75;3.75;;;;;;;;;;5123800;27;20138;-77
2023/03/14 05:25:12;;;;;;;16.52;3.50;;;;;;;;;;5122925;27;20088;-77
2023/03/14 05:27:38;;;;;;;16.25;3.20;;;;;;;;;;5124946;28;20050;-77
2023/03/14 05:30:05;;;;;;;11.88;2.30;;;;;;;;;;5127686;28;20035;-77
2023/03/14 05:32:31;;;;;;;8.60;2.30;;;;;;;;;;5124664;28;20505;-77
2023/03/14 05:34:59;;;;;;;12.15;2.55;;;;;;;;;;5119338;28;20031;-77
2023/03/14 05:37:25;;;;;;;10.48;2.65;;;;;;;;;;5116343;28;20031;-77
2023/03/14 05:39:51;;;;;;;15.35;2.63;;;;;;;;;;5126731;28;20043;-76
2023/03/14 05:42:17;;;;;;;10.23;2.75;;;;;;;;;;5123356;28;20076;-77
2023/03/14 05:44:43;;;;;;;10.88;3.05;;;;;;;;;;5120049;27;20039;-77
2023/03/14 05:47:10;;;;;;;14.02;2.80;;;;;;;;;;5119913;28;20070;-77
2023/03/14 05:49:36;;;;;;;18.30;3.28;;;;;;;;;;5125462;28;20039;-76
2023/03/14 05:52:02;;;;;;;20.65;3.55;;;;;;;;;;5117911;28;20044;-76
2023/03/14 05:54:28;;;;;;;15.55;2.85;;;;;;;;;;5127592;28;20040;-77
2023/03/14 05:56:54;;;;;;;16.35;3.80;;;;;;;;;;5127001;27;20043;-76
2023/03/14 05:59:20;;;;;;;10.50;2.90;;;;;;;;;;5125276;28;20043;-77
2023/03/14 06:01:46;;;;;;;11.93;2.63;;;;;;;;;;5117263;28;20047;-76
2023/03/14 06:04:13;;;;;;;10.45;3.13;;;;;;;;;;5116036;28;20422;-77
2023/03/14 06:06:39;;;;;;;13.10;4.47;;;;;;;;;;5122349;28;20051;-77
2023/03/14 06:09:05;;;;;;;12.15;3.00;;;;;;;;;;5122893;28;20044;-77
2023/03/14 06:11:31;;;;;;;14.13;4.03;;;;;;;;;;5125490;28;20042;-77
2023/03/14 06:13:57;;;;;;;9.38;3.92;;;;;;;;;;5124370;27;20042;-77
2023/03/14 06:16:23;;;;;;;11.07;3.78;;;;;;;;;;5121093;27;20047;-77
2023/03/14 06:18:49;;;;;;;14.27;4.07;;;;;;;;;;5126281;27;20482;-77
2023/03/14 06:21:16;;;;;;;10.13;4.15;;;;;;;;;;5116899;27;20135;-76
2023/03/14 06:23:42;;;;;;;6.15;2.80;;;;;;;;;;5127063;27;20122;-77
2023/03/14 06:26:08;;;;;;;9.40;3.53;;;;;;;;;;5118466;27;20759;-77
2023/03/14 06:28:34;;;;;;;8.30;3.90;;;;;;;;;;5126961;27;20519;-77
2023/03/14 06:31:00;;;;;;;6.57;2.97;;;;;;;;;;5129232;27;20501;-77
2023/03/14 06:33:26;;;;;;;10.20;2.20;;;;;;;;;;5129533;27;20047;-77
2023/03/14 06:35:52;;;;;;;6.53;3.35;;;;;;;;;;5125864;27;20050;-77
2023/03/14 06:38:18;;;;;;;5.93;1.88;;;;;;;;;;5127791;27;20038;-77
2023/03/14 06:40:44;;;;;;;9.15;2.45;;;;;;;;;;5122426;27;20035;-77
2023/03/14 06:43:10;;;;;;;6.65;3.17;;;;;;;;;;5125466;27;20131;-78
2023/03/14 06:45:36;;;;;;;8.02;3.05;;;;;;;;;;5125656;27;21016;-77
2023/03/14 06:48:02;;;;;;;7.25;3.20;;;;;;;;;;5128860;27;20113;-77
2023/03/14 06:50:29;;;;;;;6.32;2.72;;;;;;;;;;5127489;27;20039;-76
2023/03/14 06:52:55;;;;;;;7.57;2.00;;;;;;;;;;5131296;27;20043;-77
2023/03/14 06:55:21;;;;;;;7.57;2.40;;;;;;;;;;5128149;27;20553;-78
2023/03/14 06:57:47;;;;;;;7.97;3.13;;;;;;;;;;5130949;27;20049;-79
2023/03/14 07:00:14;;;;;;;9.38;3.28;;;;;;;;;;5122904;27;20112;-78
2023/03/14 07:02:40;;;;;;;10.25;2.80;;;;;;;;;;5126394;27;20046;-79
2023/03/14 07:05:06;;;;;;;6.07;2.15;;;;;;;;;;5126671;27;20123;-79
2023/03/14 07:07:32;;;;;;;7.63;2.63;;;;;;;;;;5126415;27;20043;-79
2023/03/14 07:09:58;;;;;;;7.57;2.38;;;;;;;;;;5126537;27;20042;-78
2023/03/14 07:12:24;;;;;;;8.68;2.42;;;;;;;;;;5129901;27;20043;-79
2023/03/14 07:14:50;;;;;;;12.27;2.85;;;;;;;;;;5130636;27;20043;-79
2023/03/14 07:17:16;;;;;;;7.05;2.55;;;;;;;;;;5126202;27;20058;-79
2023/03/14 07:19:42;;;;;;;8.02;2.47;;;;;;;;;;5124636;27;20035;-78
2023/03/14 07:22:08;;;;;;;12.90;2.78;;;;;;;;;;5126527;27;20059;-79
2023/03/14 07:24:34;;;;;;;11.27;3.05;;;;;;;;;;5124724;27;20057;-78
2023/03/14 07:27:00;;;;;;;12.82;2.83;;;;;;;;;;5116399;27;20417;-78
2023/03/14 07:29:26;;;;;;;9.52;2.90;;;;;;;;;;5125877;27;20097;-79
2023/03/14 07:31:53;;;;;;;7.97;2.70;;;;;;;;;;5118947;27;20355;-78
2023/03/14 07:34:19;;;;;;;13.27;3.85;;;;;;;;;;5124681;27;20475;-78
2023/03/14 07:36:45;;;;;;;14.23;3.25;;;;;;;;;;5125294;27;20478;-79
2023/03/14 07:39:11;;;;;;;14.40;3.45;;;;;;;;;;5128976;27;20088;-79
2023/03/14 07:41:37;;;;;;;11.60;3.10;;;;;;;;;;5113370;27;20060;-79
2023/03/14 07:44:03;;;;;;;11.48;3.15;;;;;;;;;;5125184;27;20083;-79
2023/03/14 07:46:29;;;;;;;13.85;3.80;;;;;;;;;;5131997;27;20414;-79
2023/03/14 07:48:55;;;;;;;13.25;3.38;;;;;;;;;;5129765;27;20036;-78
2023/03/14 07:51:21;;;;;;;13.20;3.58;;;;;;;;;;5122195;27;20039;-79
2023/03/14 07:53:47;;;;;;;22.15;3.97;;;;;;;;;;5129502;27;20501;-79
2023/03/14 07:56:13;;;;;;;19.27;4.63;;;;;;;;;;5131677;27;20054;-78
2023/03/14 07:58:39;;;;;;;18.42;3.97;;;;;;;;;;5120757;27;20039;-78
2023/03/14 08:01:05;;;;;;;24.17;4.25;;;;;;;;;;5113048;27;20095;-78
2023/03/14 08:03:31;;;;;;;17.80;4.88;;;;;;;;;;5118112;27;20047;-76
2023/03/14 08:05:57;;;;;;;19.92;4.15;;;;;;;;;;5131371;27;20042;-77
2023/03/14 08:08:23;;;;;;;16.20;4.15;;;;;;;;;;5121908;27;20135;-78
2023/03/14 08:10:49;;;;;;;18.80;4.20;;;;;;;;;;5121348;27;20038;-77
2023/03/14 08:13:15;;;;;;;16.60;5.47;;;;;;;;;;5112933;27;20393;-77
2023/03/14 08:15:42;;;;;;;22.40;5.10;;;;;;;;;;5118604;27;20119;-78
2023/03/14 08:18:08;;;;;;;18.23;4.70;;;;;;;;;;5116997;27;20050;-77
2023/03/14 08:20:34;;;;;;;16.83;3.97;;;;;;;;;;5117920;27;20066;-77
2023/03/14 08:23:00;;;;;;;18.52;4.75;;;;;;;;;;5121195;27;20051;-78
2023/03/14 08:25:27;;;;;;;16.98;3.67;;;;;;;;;;5120439;27;20123;-78
2023/03/14 08:27:53;;;;;;;15.43;3.78;;;;;;;;;;5129815;27;20483;-78
2023/03/14 08:30:20;;;;;;;13.18;3.50;;;;;;;;;;5129468;27;20035;-78
2023/03/14 08:32:46;;;;;;;20.13;3.88;;;;;;;;;;5127575;27;20432;-78
2023/03/14 08:35:12;;;;;;;14.82;3.83;;;;;;;;;;5112181;27;20061;-78
2023/03/14 08:37:38;;;;;;;20.90;3.90;;;;;;;;;;5124146;27;20141;-79
2023/03/14 08:40:09;;;;;;;11.93;3.33;;;;;;;;;;5121672;27;20551;-78
2023/03/14 08:42:35;;;;;;;11.98;4.22;;;;;;;;;;5129948;27;20054;-78
2023/03/14 08:45:01;;;;;;;11.70;3.38;;;;;;;;;;5124503;27;20040;-77
2023/03/14 08:47:28;;;;;;;14.05;3.60;;;;;;;;;;5123137;27;20054;-78
2023/03/14 08:49:54;;;;;;;13.98;3.28;;;;;;;;;;5123095;27;20039;-78
2023/03/14 08:52:20;;;;;;;17.65;4.50;;;;;;;;;;5123944;27;20548;-78
2023/03/14 08:54:46;;;;;;;20.55;4.30;;;;;;;;;;5119460;27;20044;-80
2023/03/14 08:57:12;;;;;;;18.50;4.25;;;;;;;;;;5126326;27;20530;-78
2023/03/14 08:59:39;;;;;;;22.98;5.00;;;;;;;;;;5116451;27;20031;-78
2023/03/14 09:02:05;;;;;;;23.48;4.72;;;;;;;;;;5126159;27;20043;-77
2023/03/14 09:04:32;;;;;;;17.48;4.50;;;;;;;;;;5128196;27;20118;-77
2023/03/14 09:06:59;;;;;;;24.45;4.78;;;;;;;;;;5125826;27;20039;-78
2023/03/14 09:09:26;;;;;;;19.70;4.05;;;;;;;;;;5122161;27;20523;-77
2023/03/14 09:11:52;;;;;;;12.82;3.42;;;;;;;;;;5121708;27;20050;-78
2023/03/14 09:14:18;;;;;;;23.70;4.35;;;;;;;;;;5120985;27;20130;-78
2023/03/14 09:16:44;;;;;;;18.63;4.75;;;;;;;;;;5118300;27;20035;-78
2023/03/14 09:19:11;;;;;;;14.05;3.40;;;;;;;;;;5125129;27;20039;-78
2023/03/14 09:21:38;;;;;;;17.02;4.47;;;;;;;;;;5123863;27;20138;-78
2023/03/14 09:24:04;;;;;;;13.18;3.70;;;;;;;;;;5128292;27;20099;-78
2023/03/14 09:26:31;;;;;;;15.45;3.88;;;;;;;;;;5129037;27;20402;-78
2023/03/14 09:28:57;;;;;;;15.93;4.15;;;;;;;;;;5128771;27;20082;-78
2023/03/14 09:31:23;;;;;;;16.85;3.42;;;;;;;;;;5127314;27;20039;-78
2023/03/14 09:33:49;;;;;;;13.00;3.95;;;;;;;;;;5117489;28;20402;-78
2023/03/14 09:36:16;;;;;;;15.00;4.15;;;;;;;;;;5126612;27;20568;-78
2023/03/14 09:38:42;;;;;;;14.20;4.05;;;;;;;;;;5127294;28;20046;-78
2023/03/14 09:41:21;;;;;;;14.98;3.33;;;;;;;;;;5128971;27;20031;-78
2023/03/14 09:43:50;;;;;;;14.20;3.72;;;;;;;;;;5123525;28;20051;-78
2023/03/14 09:46:17;;;;;;;16.50;3.40;;;;;;;;;;5122840;28;20047;-78
2023/03/14 09:48:43;;;;;;;14.30;3.63;;;;;;;;;;5127911;27;20520;-78
2023/03/14 09:51:17;;;;;;;8.50;3.63;;;;;;;;;;5128639;27;20088;-78
2023/03/14 09:53:45;;;;;;;15.20;3.50;;;;;;;;;;5127933;27;20122;-78
2023/03/14 09:56:13;;;;;;;12.30;3.63;;;;;;;;;;5126333;27;20097;-77
2023/03/14 09:58:41;;;;;;;20.60;3.35;;;;;;;;;;5132945;27;20043;-77
2023/03/14 10:01:10;;;;;;;13.48;3.13;;;;;;;;;;5130815;27;20043;-78
2023/03/14 10:03:36;;;;;;;17.25;3.30;;;;;;;;;;5133776;27;20042;-78
2023/03/14 10:06:02;;;;;;;11.25;2.63;;;;;;;;;;5126147;27;20101;-78
2023/03/14 10:08:28;;;;;;;12.40;2.70;;;;;;;;;;5133389;27;20128;-78
2023/03/14 10:10:54;;;;;;;6.97;2.95;;;;;;;;;;5126472;27;20039;-78
2023/03/14 10:13:27;;;;;;;8.90;2.58;;;;;;;;;;5129956;27;20047;-77
2023/03/14 10:16:04;;;;;;;7.15;2.30;;;;;;;;;;5130866;27;20055;-77
2023/03/14 10:18:31;;;;;;;13.40;3.00;;;;;;;;;;5131375;27;20054;-77
2023/03/14 10:21:03;;;;;;;14.48;3.53;;;;;;;;;;5143269;27;20062;-78
2023/03/14 10:23:30;;;;;;;9.73;2.58;;;;;;;;;;5143863;27;20041;-78
2023/03/14 10:26:01;;;;;;;16.23;4.15;;;;;;;;;;5149933;27;20043;-77
2023/03/14 10:28:28;;;;;;;10.80;3.00;;;;;;;;;;5151431;27;20043;-77
2023/03/14 10:30:55;;;;;;;13.23;3.47;;;;;;;;;;5149849;27;20050;-77
2023/03/14 10:33:23;;;;;;;13.98;2.95;;;;;;;;;;5145991;27;20038;-77
2023/03/14 10:35:56;;;;;;;6.43;2.38;;;;;;;;;;5145812;27;20046;-77
2023/03/14 10:38:24;;;;;;;6.07;2.20;;;;;;;;;;5151941;27;20041;-77
2023/03/14 10:40:52;;;;;;;9.35;2.97;;;;;;;;;;5128193;27;20042;-77
2023/03/14 10:43:35;;;;;;;8.02;2.70;;;;;;;;;;5150846;27;20082;-77
2023/03/14 10:46:06;;;;;;;6.35;2.30;;;;;;;;;;5150692;27;20096;-77
2023/03/14 10:48:33;;;;;;;8.93;3.10;;;;;;;;;;5134685;27;20134;-77
2023/03/14 10:51:05;;;;;;;6.03;2.33;;;;;;;;;;5130305;27;20516;-77
2023/03/14 10:53:39;;;;;;;6.43;2.20;;;;;;;;;;5141648;27;20049;-77
2023/03/14 10:56:05;;;;;;;8.98;2.67;;;;;;;;;;5149495;27;20046;-77
2023/03/14 10:58:34;;;;;;;6.63;2.72;;;;;;;;;;5132659;27;20074;-77
2023/03/14 11:01:03;;;;;;;16.70;2.50;;;;;;;;;;5131093;27;20042;-77
2023/03/14 11:03:31;;;;;;;6.65;2.42;;;;;;;;;;5130300;27;20046;-77
2023/03/14 11:05:58;;;;;;;11.07;2.78;;;;;;;;;;5148201;27;20395;-77
2023/03/14 11:08:24;;;;;;;9.98;2.97;;;;;;;;;;5125517;27;20078;-77
2023/03/14 11:10:54;;;;;;;10.38;2.70;;;;;;;;;;5131317;27;20088;-78
2023/03/14 11:13:25;;;;;;;7.88;2.60;;;;;;;;;;5139739;27;20175;-77
2023/03/14 11:15:59;;;;;;;5.55;2.15;;;;;;;;;;5128140;27;20114;-77
2023/03/14 11:18:47;;;;;;;9.63;2.92;;;;;;;;;;5132542;27;20152;-78
2023/03/14 11:21:31;;;;;;;11.35;2.90;;;;;;;;;;5144290;27;20038;-77
2023/03/14 11:24:06;;;;;;;8.63;2.28;;;;;;;;;;5128406;27;20090;-77
2023/03/14 11:26:36;;;;;;;8.65;2.55;;;;;;;;;;5131456;27;20043;-77
2023/03/14 11:29:15;;;;;;;15.52;3.05;;;;;;;;;;5129812;27;20079;-77
2023/03/14 11:31:44;;;;;;;13.35;3.13;;;;;;;;;;5148187;27;20504;-77
2023/03/14 11:34:10;;;;;;;16.48;3.03;;;;;;;;;;5146657;27;20066;-77
2023/03/14 11:36:42;;;;;;;9.30;2.45;;;;;;;;;;5132295;27;20088;-77
2023/03/14 11:39:14;;;;;;;9.60;2.85;;;;;;;;;;5125104;27;20047;-77
2023/03/14 11:41:41;;;;;;;7.72;2.70;;;;;;;;;;5150698;27;20118;-78
2023/03/14 11:44:30;;;;;;;7.93;3.17;;;;;;;;;;5129441;27;20496;-77
2023/03/14 11:47:06;;;;;;;6.05;2.10;;;;;;;;;;5111817;27;20629;-77
2023/03/14 11:49:41;;;;;;;7.50;2.63;;;;;;;;;;5148307;27;20049;-77
2023/03/14 11:52:13;;;;;;;9.23;2.33;;;;;;;;;;5126859;27;20039;-77
2023/03/14 11:54:53;;;;;;;5.80;2.80;;;;;;;;;;5143391;27;21741;-76
2023/03/14 11:57:20;;;;;;;5.93;2.25;;;;;;;;;;5142393;27;20041;-76
2023/03/14 11:59:49;;;;;;;7.75;2.55;;;;;;;;;;5133996;27;20482;-76
2023/03/14 12:02:23;;;;;;;10.05;2.50;;;;;;;;;;5129920;27;20038;-76
2023/03/14 12:05:15;;;;;;;7.45;2.55;;;;;;;;;;5138304;27;20050;-76
2023/03/14 12:07:59;;;;;;;6.72;2.42;;;;;;;;;;5125705;27;20470;-76
2023/03/14 12:10:26;;;;;;;9.55;2.55;;;;;;;;;;5147065;27;21685;-77
2023/03/14 12:12:52;;;;;;;10.77;3.13;;;;;;;;;;5136636;27;20043;-78
2023/03/14 12:15:24;;;;;;;11.95;3.25;;;;;;;;;;5131138;27;20043;-78
2023/03/14 12:17:54;;;;;;;7.38;2.70;;;;;;;;;;5118722;27;20072;-77
2023/03/14 12:20:25;;;;;;;9.60;2.80;;;;;;;;;;5125120;27;20070;-77
2023/03/14 12:22:51;;;;;;;8.68;2.38;;;;;;;;;;5146464;27;20045;-78
2023/03/14 12:25:19;;;;;;;8.95;2.55;;;;;;;;;;5129307;27;20054;-77
2023/03/14 12:27:54;;;;;;;10.70;2.58;;;;;;;;;;5116161;27;20039;-77
2023/03/14 12:30:32;;;;;;;10.27;2.58;;;;;;;;;;5125401;27;20038;-77
2023/03/14 12:33:10;;;;;;;7.32;2.35;;;;;;;;;;5140745;27;20047;-77
2023/03/14 12:35:36;;;;;;;7.80;2.33;;;;;;;;;;5128748;27;20043;-77
2023/03/14 12:38:04;;;;;;;11.13;2.90;;;;;;;;;;5125199;27;20084;-77
2023/03/14 12:40:33;;;;;;;7.93;3.28;;;;;;;;;;5138754;27;20050;-77
2023/03/14 12:43:03;;;;;;;7.88;2.47;;;;;;;;;;5141328;27;20034;-77
2023/03/14 12:45:33;;;;;;;10.95;2.63;;;;;;;;;;5143284;27;20106;-77
2023/03/14 12:48:17;;;;;;;6.22;2.33;;;;;;;;;;5121083;27;20047;-79
2023/03/14 12:50:54;;;;;;;8.98;2.72;;;;;;;;;;5147118;27;20035;-78
2023/03/14 12:53:20;;;;;;;10.82;3.67;;;;;;;;;;5137981;27;20447;-77
2023/03/14 12:55:59;;;;;;;9.48;2.65;;;;;;;;;;5125440;27;20043;-78
2023/03/14 12:58:34;;;;;;;6.80;2.20;;;;;;;;;;5124102;27;20047;-78
2023/03/14 13:01:01;;;;;;;6.55;2.65;;;;;;;;;;5121085;27;20627;-78
2023/03/14 13:03:38;;;;;;;6.95;2.55;;;;;;;;;;5143574;27;20435;-78
2023/03/14 13:06:04;;;;;;;5.30;2.08;;;;;;;;;;5122866;27;20047;-78
2023/03/14 13:08:44;;;;;;;8.30;2.50;;;;;;;;;;5128699;27;20046;-78
2023/03/14 13:11:17;;;;;;;5.43;2.35;;;;;;;;;;5118730;27;20030;-79
2023/03/14 13:13:48;;;;;;;8.27;2.55;;;;;;;;;;5129670;27;20049;-78
2023/03/14 13:16:18;;;;;;;6.95;2.60;;;;;;;;;;5119597;27;20471;-78
2023/03/14 13:18:49;;;;;;;7.55;3.10;;;;;;;;;;5123747;27;20039;-78
2023/03/14 13:21:22;;;;;;;14.25;2.97;;;;;;;;;;5141578;27;20053;-78
2023/03/14 13:24:02;;;;;;;7.45;2.67;;;;;;;;;;5121015;27;20067;-78
2023/03/14 13:26:44;;;;;;;11.23;2.63;;;;;;;;;;5140388;27;20520;-78
2023/03/14 13:29:15;;;;;;;5.93;2.63;;;;;;;;;;5128703;27;20076;-78
2023/03/14 13:31:44;;;;;;;9.75;2.60;;;;;;;;;;5128674;27;20066;-78
2023/03/14 13:34:11;;;;;;;12.27;2.30;;;;;;;;;;5126300;27;20049;-79
2023/03/14 13:36:37;;;;;;;7.47;2.00;;;;;;;;;;5147210;27;20042;-79
2023/03/14 13:39:05;;;;;;;5.60;2.30;;;;;;;;;;5136060;27;20122;-78
2023/03/14 13:41:31;;;;;;;9.85;2.70;;;;;;;;;;5123721;27;20042;-78
2023/03/14 13:44:06;;;;;;;6.25;2.45;;;;;;;;;;5122505;27;20133;-78
2023/03/14 13:46:33;;;;;;;5.60;2.58;;;;;;;;;;5126553;27;20057;-78
2023/03/14 13:49:02;;;;;;;6.95;2.42;;;;;;;;;;5144388;27;20396;-79
2023/03/14 13:51:31;;;;;;;7.60;2.33;;;;;;;;;;5123527;27;20042;-79
2023/03/14 13:53:58;;;;;;;9.77;2.80;;;;;;;;;;5123257;27;20055;-78
2023/03/14 13:56:28;;;;;;;7.05;2.58;;;;;;;;;;5135414;27;20513;-78
2023/03/14 13:58:54;;;;;;;7.43;2.70;;;;;;;;;;5146133;27;20047;-78
2023/03/14 14:01:23;;;;;;;11.25;2.97;;;;;;;;;;5125389;27;20046;-78
2023/03/14 14:03:50;;;;;;;10.13;2.65;;;;;;;;;;5122468;28;20035;-79
2023/03/14 14:06:22;;;;;;;13.23;3.20;;;;;;;;;;5121876;27;20043;-79
2023/03/14 14:08:48;;;;;;;6.82;2.65;;;;;;;;;;5139947;27;20431;-78
2023/03/14 14:11:20;;;;;;;5.30;2.58;;;;;;;;;;5120008;27;20066;-78
2023/03/14 14:13:47;;;;;;;11.50;3.30;;;;;;;;;;5125166;28;20043;-79
2023/03/14 14:16:13;;;;;;;7.07;2.75;;;;;;;;;;5122829;27;20046;-78
2023/03/14 14:18:39;;;;;;;8.40;2.60;;;;;;;;;;5144563;27;20027;-78
2023/03/14 14:21:06;;;;;;;6.70;2.72;;;;;;;;;;5143435;27;20063;-78
2023/03/14 14:23:32;;;;;;;9.65;2.65;;;;;;;;;;5141609;27;20066;-78
2023/03/14 14:25:59;;;;;;;8.55;2.40;;;;;;;;;;5122172;27;20076;-78
2023/03/14 14:28:30;;;;;;;4.95;2.30;;;;;;;;;;5148192;27;20039;-78
2023/03/14 14:31:06;;;;;;;4.38;2.35;;;;;;;;;;5133035;27;20129;-78
2023/03/14 14:33:40;;;;;;;8.07;2.67;;;;;;;;;;5133704;27;20049;-77
2023/03/14 14:36:06;;;;;;;;;;;;;;;;;;5151752;27;20047;-78
2023/03/14 14:38:32;;;;;;;8.95;3.03;;;;;;;;;;5149274;27;19925;-79